Aérodrome :
LOGIN :

S'inscrire | Disclaimer

   EN    FR    IT 

 










Légende :    VFR   VFR Marginal   IFR   IFR Intensif   IFR Très Intensif
Visi : 
Plafond : 
>= 8 km
>= 3000ft
5 à 8 km
1000 à 3000 ft
1500m à 5 km
500 à 1000 ft
800 à 1500m
200 à 500 ft
< 800m
< 200 ft
Symboles :   Orages  Brouillard  Fortes neiges  Fortes précipitations  Vent > 20 kt
SIGMETs :   Divers  Orages  Givrage  Turbulence  Onde Orograph.  Cendres Volcan.






- Altitude de l'aérodrome : 485 ft
- Code IATA : QSA


LELL - Sabadell

DERNIER METAR :
  • 141200Z 16008KT 100V230 9999 R31///// FEW030 26/18 Q1015

METARs EXPIRÉS :
  • 141130Z 17008KT 100V220 9999 FEW030 25/17 Q1015
  • 141100Z VRB06KT 9999 FEW020 SCT030 25/17 Q1015
  • 141030Z 23005KT 170V330 9999 FEW020 SCT030 25/17 Q1016
  • 141000Z 22005KT 170V300 9999 FEW020 BKN030 24/17 Q1016
  • 140930Z 20006KT 140V260 9999 FEW020 BKN030 23/17 Q1016
  • 140900Z 22006KT 150V260 9999 FEW020 SCT030 23/17 Q1016
  • 140830Z 22005KT 150V280 9999 BKN025 22/17 Q1016
  • 140800Z 19004KT 140V230 9999 BKN025 21/17 Q1016
  • 140730Z VRB02KT 9999 OVC020 20/17 Q1016
  • 140700Z VRB02KT 9999 OVC020 20/17 Q1016

TAF TAF LELL
Valide du 14 à 09h jusqu'au 15 à 09h UTC


140800Z 1409/1509 VRB04KT 9999 FEW040 TX27/1413Z TN15/1505Z
PROB30
TEMPO 1409/1410 3000 BR BKN005
BECMG 1410/1412 20008KT
BECMG 1420/1422 VRB03KT
BECMG 1507/1509 13008KT



MET'MAP, la Météo Aéronautique d'un coup d'oeil ! - Copyright ORBIFLY Décembre 2007 - Disclaimer

ORBIFLY MET'MAP TEAM :

Programmation & Développement : Alexandra Zaïnal
Sur une idée originale de : Baudouin d'Aumeries
Soutien technique & logistique : Manuel Goepfert
Assistance : Marc-Olivier Méhu




SOURCES & CREDITS :

   NOAA